This is the latest recevied weather packets stored in our database for station/object SP9WPN-12. If no packets are shown the sender has not sent any weather packets the latest 10 day(s).
| Time | Temp. | Humidity | Pressure | Rain* | Wind** | Luminosity | Snow |
|---|---|---|---|---|---|---|---|
| 1777728822 | 23.89° C | 27% | 1021.5 hPa | - | - | - | - |
| 1777728224 | 25° C | 26% | 1021.5 hPa | - | - | - | - |
| 1777727626 | 25° C | 26% | 1021.6 hPa | - | - | - | - |
| 1777727028 | 24.44° C | 28% | 1021.8 hPa | - | - | - | - |
| 1777726431 | 25.56° C | 25% | 1021.8 hPa | - | - | - | - |
| 1777725833 | 24.44° C | 25% | 1022.1 hPa | - | - | - | - |
| 1777725235 | 25° C | 25% | 1022.3 hPa | - | - | - | - |
| 1777724637 | 25° C | 26% | 1022.4 hPa | - | - | - | - |
| 1777724040 | 26.11° C | 26% | 1022.4 hPa | - | - | - | - |
| 1777723443 | 23.89° C | 27% | 1022.8 hPa | - | - | - | - |
| 1777722846 | 25° C | 26% | 1022.8 hPa | - | - | - | - |
| 1777722248 | 23.89° C | 27% | 1023 hPa | - | - | - | - |
| 1777721650 | 23.33° C | 28% | 1023.2 hPa | - | - | - | - |
| 1777721052 | 24.44° C | 28% | 1023.2 hPa | - | - | - | - |
| 1777720455 | 23.89° C | 30% | 1023.4 hPa | - | - | - | - |
| 1777719857 | 24.44° C | 29% | 1023.4 hPa | - | - | - | - |
| 1777719260 | 24.44° C | 28% | 1023.6 hPa | - | - | - | - |
| 1777718661 | 24.44° C | 30% | 1023.7 hPa | - | - | - | - |
| 1777718064 | 24.44° C | 30% | 1023.7 hPa | - | - | - | - |
| 1777717466 | 23.89° C | 31% | 1024 hPa | - | - | - | - |
| 1777716869 | 24.44° C | 30% | 1024.1 hPa | - | - | - | - |
| 1777716271 | 24.44° C | 30% | 1024.1 hPa | - | - | - | - |
| 1777715674 | 23.89° C | 30% | 1024.3 hPa | - | - | - | - |
| 1777715075 | 25° C | 30% | 1024.2 hPa | - | - | - | - |
| 1777714478 | 23.33° C | 31% | 1024.5 hPa | - | - | - | - |
* Rain since midnight (hover to see other rain measurements)
** Current wind speed in m/s (hover to see current wind gust speed)